sensor_id;sensor_type;location;lat;lon;timestamp;P1;durP1;ratioP1;P2;durP2;ratioP2
25905;SDS011;13713;52.552;13.204;2023-04-03T00:01:09;23.33;;;15.05;;
25905;SDS011;13713;52.552;13.204;2023-04-03T00:03:35;23.60;;;14.93;;
25905;SDS011;13713;52.552;13.204;2023-04-03T00:06:01;24.52;;;15.80;;
25905;SDS011;13713;52.552;13.204;2023-04-03T00:08:28;21.52;;;14.90;;
25905;SDS011;13713;52.552;13.204;2023-04-03T00:10:56;25.23;;;15.88;;
25905;SDS011;13713;52.552;13.204;2023-04-03T00:13:22;26.92;;;16.20;;
25905;SDS011;13713;52.552;13.204;2023-04-03T00:15:48;26.70;;;18.02;;
25905;SDS011;13713;52.552;13.204;2023-04-03T00:18:14;26.83;;;18.15;;
25905;SDS011;13713;52.552;13.204;2023-04-03T00:20:40;28.05;;;18.13;;
25905;SDS011;13713;52.552;13.204;2023-04-03T00:23:05;27.30;;;17.88;;
25905;SDS011;13713;52.552;13.204;2023-04-03T00:25:31;29.42;;;19.80;;
25905;SDS011;13713;52.552;13.204;2023-04-03T00:27:57;28.33;;;17.95;;
25905;SDS011;13713;52.552;13.204;2023-04-03T00:30:23;31.25;;;19.20;;
25905;SDS011;13713;52.552;13.204;2023-04-03T00:32:49;29.50;;;19.60;;
25905;SDS011;13713;52.552;13.204;2023-04-03T00:35:16;33.03;;;20.95;;
25905;SDS011;13713;52.552;13.204;2023-04-03T00:37:44;30.52;;;19.85;;
25905;SDS011;13713;52.552;13.204;2023-04-03T00:40:10;35.60;;;22.23;;
25905;SDS011;13713;52.552;13.204;2023-04-03T00:42:37;36.10;;;22.83;;
25905;SDS011;13713;52.552;13.204;2023-04-03T00:47:30;36.60;;;22.55;;
25905;SDS011;13713;52.552;13.204;2023-04-03T00:49:56;36.47;;;22.42;;
25905;SDS011;13713;52.552;13.204;2023-04-03T00:52:25;34.08;;;21.55;;
25905;SDS011;13713;52.552;13.204;2023-04-03T00:54:56;35.75;;;22.73;;
25905;SDS011;13713;52.552;13.204;2023-04-03T00:57:23;33.03;;;22.27;;
25905;SDS011;13713;52.552;13.204;2023-04-03T00:59:50;37.85;;;23.52;;
25905;SDS011;13713;52.552;13.204;2023-04-03T01:02:20;40.25;;;25.08;;
25905;SDS011;13713;52.552;13.204;2023-04-03T01:04:46;39.42;;;24.58;;
25905;SDS011;13713;52.552;13.204;2023-04-03T01:07:20;37.20;;;23.65;;
25905;SDS011;13713;52.552;13.204;2023-04-03T01:09:49;36.95;;;24.15;;
25905;SDS011;13713;52.552;13.204;2023-04-03T01:12:20;40.53;;;24.98;;
25905;SDS011;13713;52.552;13.204;2023-04-03T01:14:49;41.05;;;26.00;;
25905;SDS011;13713;52.552;13.204;2023-04-03T01:22:56;41.38;;;26.77;;
25905;SDS011;13713;52.552;13.204;2023-04-03T01:25:31;43.83;;;27.67;;
25905;SDS011;13713;52.552;13.204;2023-04-03T01:27:58;48.55;;;29.60;;
25905;SDS011;13713;52.552;13.204;2023-04-03T01:30:31;48.15;;;30.45;;
25905;SDS011;13713;52.552;13.204;2023-04-03T01:32:59;45.50;;;28.70;;
25905;SDS011;13713;52.552;13.204;2023-04-03T01:35:25;47.47;;;30.52;;
25905;SDS011;13713;52.552;13.204;2023-04-03T01:37:51;57.10;;;34.80;;
25905;SDS011;13713;52.552;13.204;2023-04-03T01:40:16;54.25;;;33.28;;
25905;SDS011;13713;52.552;13.204;2023-04-03T01:42:44;55.60;;;33.47;;
25905;SDS011;13713;52.552;13.204;2023-04-03T01:45:11;58.30;;;35.47;;
25905;SDS011;13713;52.552;13.204;2023-04-03T01:47:37;56.65;;;35.60;;
25905;SDS011;13713;52.552;13.204;2023-04-03T01:50:03;56.67;;;35.28;;
25905;SDS011;13713;52.552;13.204;2023-04-03T01:52:32;57.65;;;35.58;;
25905;SDS011;13713;52.552;13.204;2023-04-03T01:54:57;57.63;;;36.38;;
25905;SDS011;13713;52.552;13.204;2023-04-03T01:57:23;62.22;;;38.72;;
25905;SDS011;13713;52.552;13.204;2023-04-03T01:59:50;63.58;;;39.53;;
25905;SDS011;13713;52.552;13.204;2023-04-03T02:02:16;66.07;;;39.08;;
25905;SDS011;13713;52.552;13.204;2023-04-03T02:04:42;73.68;;;44.25;;
25905;SDS011;13713;52.552;13.204;2023-04-03T02:07:08;65.38;;;39.97;;
25905;SDS011;13713;52.552;13.204;2023-04-03T02:09:33;64.70;;;39.53;;
25905;SDS011;13713;52.552;13.204;2023-04-03T02:12:00;69.22;;;43.00;;
25905;SDS011;13713;52.552;13.204;2023-04-03T02:14:25;69.70;;;42.45;;
25905;SDS011;13713;52.552;13.204;2023-04-03T02:16:52;65.32;;;40.97;;
25905;SDS011;13713;52.552;13.204;2023-04-03T02:19:21;68.78;;;41.15;;
25905;SDS011;13713;52.552;13.204;2023-04-03T02:21:47;66.78;;;42.03;;
25905;SDS011;13713;52.552;13.204;2023-04-03T02:24:14;71.78;;;43.10;;
25905;SDS011;13713;52.552;13.204;2023-04-03T02:26:39;74.35;;;44.47;;
25905;SDS011;13713;52.552;13.204;2023-04-03T02:29:05;75.57;;;46.00;;
25905;SDS011;13713;52.552;13.204;2023-04-03T02:31:31;73.53;;;43.95;;
25905;SDS011;13713;52.552;13.204;2023-04-03T02:33:58;70.93;;;43.50;;
25905;SDS011;13713;52.552;13.204;2023-04-03T02:36:24;74.72;;;44.53;;
25905;SDS011;13713;52.552;13.204;2023-04-03T02:38:54;72.68;;;43.90;;
25905;SDS011;13713;52.552;13.204;2023-04-03T02:41:20;75.35;;;44.42;;
25905;SDS011;13713;52.552;13.204;2023-04-03T02:43:47;75.40;;;45.65;;
25905;SDS011;13713;52.552;13.204;2023-04-03T02:46:14;73.55;;;44.60;;
25905;SDS011;13713;52.552;13.204;2023-04-03T02:48:41;73.72;;;45.42;;
25905;SDS011;13713;52.552;13.204;2023-04-03T02:51:06;76.40;;;46.72;;
25905;SDS011;13713;52.552;13.204;2023-04-03T02:53:32;77.35;;;46.00;;
25905;SDS011;13713;52.552;13.204;2023-04-03T02:56:05;85.18;;;49.72;;
25905;SDS011;13713;52.552;13.204;2023-04-03T02:58:31;82.43;;;49.45;;
25905;SDS011;13713;52.552;13.204;2023-04-03T03:00:58;75.05;;;45.08;;
25905;SDS011;13713;52.552;13.204;2023-04-03T03:03:24;77.10;;;46.53;;
25905;SDS011;13713;52.552;13.204;2023-04-03T03:05:49;77.00;;;45.55;;
25905;SDS011;13713;52.552;13.204;2023-04-03T03:08:15;74.68;;;45.42;;
25905;SDS011;13713;52.552;13.204;2023-04-03T03:10:41;77.90;;;46.75;;
25905;SDS011;13713;52.552;13.204;2023-04-03T03:13:06;81.50;;;48.97;;
25905;SDS011;13713;52.552;13.204;2023-04-03T03:15:32;76.95;;;46.83;;
25905;SDS011;13713;52.552;13.204;2023-04-03T03:17:58;82.53;;;49.70;;
25905;SDS011;13713;52.552;13.204;2023-04-03T03:20:24;77.30;;;46.78;;
25905;SDS011;13713;52.552;13.204;2023-04-03T03:22:50;82.55;;;49.22;;
25905;SDS011;13713;52.552;13.204;2023-04-03T03:25:16;88.22;;;52.58;;
25905;SDS011;13713;52.552;13.204;2023-04-03T03:27:41;83.28;;;50.35;;
25905;SDS011;13713;52.552;13.204;2023-04-03T03:30:08;84.80;;;51.22;;
25905;SDS011;13713;52.552;13.204;2023-04-03T03:32:33;82.07;;;49.83;;
25905;SDS011;13713;52.552;13.204;2023-04-03T03:35:00;86.32;;;52.63;;
25905;SDS011;13713;52.552;13.204;2023-04-03T03:37:26;94.43;;;53.75;;
25905;SDS011;13713;52.552;13.204;2023-04-03T03:39:52;86.05;;;51.30;;
25905;SDS011;13713;52.552;13.204;2023-04-03T03:42:18;87.05;;;51.30;;
25905;SDS011;13713;52.552;13.204;2023-04-03T03:44:44;94.40;;;54.65;;
25905;SDS011;13713;52.552;13.204;2023-04-03T03:47:09;93.97;;;54.42;;
25905;SDS011;13713;52.552;13.204;2023-04-03T03:49:36;82.70;;;50.00;;
25905;SDS011;13713;52.552;13.204;2023-04-03T03:52:02;96.60;;;55.72;;
25905;SDS011;13713;52.552;13.204;2023-04-03T03:54:28;98.05;;;55.80;;
25905;SDS011;13713;52.552;13.204;2023-04-03T03:56:53;93.97;;;54.63;;
25905;SDS011;13713;52.552;13.204;2023-04-03T03:59:19;97.03;;;56.35;;
25905;SDS011;13713;52.552;13.204;2023-04-03T04:01:46;90.35;;;52.00;;
25905;SDS011;13713;52.552;13.204;2023-04-03T04:04:12;89.75;;;53.45;;
25905;SDS011;13713;52.552;13.204;2023-04-03T04:06:38;95.22;;;54.92;;
25905;SDS011;13713;52.552;13.204;2023-04-03T04:09:08;97.68;;;56.80;;
25905;SDS011;13713;52.552;13.204;2023-04-03T04:11:34;100.63;;;57.00;;
25905;SDS011;13713;52.552;13.204;2023-04-03T04:14:01;90.30;;;52.20;;
25905;SDS011;13713;52.552;13.204;2023-04-03T04:16:28;98.65;;;56.35;;
25905;SDS011;13713;52.552;13.204;2023-04-03T04:18:57;91.55;;;53.70;;
25905;SDS011;13713;52.552;13.204;2023-04-03T04:21:23;92.60;;;53.42;;
25905;SDS011;13713;52.552;13.204;2023-04-03T04:23:51;97.68;;;56.00;;
25905;SDS011;13713;52.552;13.204;2023-04-03T04:26:17;93.40;;;55.10;;
25905;SDS011;13713;52.552;13.204;2023-04-03T04:28:43;97.65;;;56.25;;
25905;SDS011;13713;52.552;13.204;2023-04-03T04:31:09;92.68;;;55.90;;
25905;SDS011;13713;52.552;13.204;2023-04-03T04:33:35;100.07;;;57.25;;
25905;SDS011;13713;52.552;13.204;2023-04-03T04:36:03;95.60;;;56.75;;
25905;SDS011;13713;52.552;13.204;2023-04-03T04:38:30;96.32;;;56.47;;
25905;SDS011;13713;52.552;13.204;2023-04-03T04:40:56;96.85;;;55.45;;
25905;SDS011;13713;52.552;13.204;2023-04-03T04:43:22;96.55;;;56.58;;
25905;SDS011;13713;52.552;13.204;2023-04-03T04:45:59;102.15;;;57.97;;
25905;SDS011;13713;52.552;13.204;2023-04-03T04:48:37;96.70;;;57.17;;
25905;SDS011;13713;52.552;13.204;2023-04-03T04:51:04;101.82;;;58.88;;
25905;SDS011;13713;52.552;13.204;2023-04-03T04:53:30;100.38;;;58.75;;
25905;SDS011;13713;52.552;13.204;2023-04-03T04:55:55;107.90;;;59.50;;
25905;SDS011;13713;52.552;13.204;2023-04-03T04:58:21;101.85;;;58.22;;
25905;SDS011;13713;52.552;13.204;2023-04-03T05:00:47;94.00;;;55.10;;
25905;SDS011;13713;52.552;13.204;2023-04-03T05:03:13;100.35;;;59.65;;
25905;SDS011;13713;52.552;13.204;2023-04-03T05:05:39;100.43;;;58.15;;
25905;SDS011;13713;52.552;13.204;2023-04-03T05:08:06;97.18;;;56.72;;
25905;SDS011;13713;52.552;13.204;2023-04-03T05:10:34;100.13;;;58.75;;
25905;SDS011;13713;52.552;13.204;2023-04-03T05:13:01;103.65;;;59.92;;
25905;SDS011;13713;52.552;13.204;2023-04-03T05:15:27;109.90;;;62.13;;
25905;SDS011;13713;52.552;13.204;2023-04-03T05:17:52;103.63;;;58.72;;
25905;SDS011;13713;52.552;13.204;2023-04-03T05:20:18;98.30;;;57.03;;
25905;SDS011;13713;52.552;13.204;2023-04-03T05:22:45;95.57;;;56.63;;
25905;SDS011;13713;52.552;13.204;2023-04-03T05:25:11;100.10;;;58.63;;
25905;SDS011;13713;52.552;13.204;2023-04-03T05:27:41;112.65;;;64.43;;
25905;SDS011;13713;52.552;13.204;2023-04-03T05:30:07;98.53;;;58.70;;
25905;SDS011;13713;52.552;13.204;2023-04-03T05:32:35;102.70;;;58.10;;
25905;SDS011;13713;52.552;13.204;2023-04-03T05:35:11;107.18;;;61.28;;
25905;SDS011;13713;52.552;13.204;2023-04-03T05:37:37;104.97;;;60.63;;
25905;SDS011;13713;52.552;13.204;2023-04-03T05:40:04;96.60;;;56.20;;
25905;SDS011;13713;52.552;13.204;2023-04-03T05:42:31;91.57;;;54.88;;
25905;SDS011;13713;52.552;13.204;2023-04-03T05:44:57;94.68;;;55.97;;
25905;SDS011;13713;52.552;13.204;2023-04-03T05:47:23;98.05;;;56.85;;
25905;SDS011;13713;52.552;13.204;2023-04-03T05:49:49;97.82;;;55.10;;
25905;SDS011;13713;52.552;13.204;2023-04-03T05:52:30;91.60;;;53.03;;
25905;SDS011;13713;52.552;13.204;2023-04-03T05:55:05;95.32;;;54.05;;
25905;SDS011;13713;52.552;13.204;2023-04-03T05:57:33;97.60;;;55.22;;
25905;SDS011;13713;52.552;13.204;2023-04-03T05:59:59;100.22;;;58.38;;
25905;SDS011;13713;52.552;13.204;2023-04-03T06:02:25;93.85;;;54.15;;
25905;SDS011;13713;52.552;13.204;2023-04-03T06:04:51;94.78;;;55.95;;
25905;SDS011;13713;52.552;13.204;2023-04-03T06:07:19;89.85;;;51.78;;
25905;SDS011;13713;52.552;13.204;2023-04-03T06:09:48;94.07;;;56.75;;
25905;SDS011;13713;52.552;13.204;2023-04-03T06:12:16;96.05;;;59.67;;
25905;SDS011;13713;52.552;13.204;2023-04-03T06:14:42;75.57;;;45.58;;
25905;SDS011;13713;52.552;13.204;2023-04-03T06:17:08;78.00;;;46.95;;
25905;SDS011;13713;52.552;13.204;2023-04-03T06:19:35;76.82;;;49.25;;
25905;SDS011;13713;52.552;13.204;2023-04-03T06:22:01;68.30;;;43.15;;
25905;SDS011;13713;52.552;13.204;2023-04-03T06:24:30;67.38;;;43.60;;
25905;SDS011;13713;52.552;13.204;2023-04-03T06:26:56;115.65;;;78.32;;
25905;SDS011;13713;52.552;13.204;2023-04-03T06:29:22;79.00;;;50.30;;
25905;SDS011;13713;52.552;13.204;2023-04-03T06:31:48;162.63;;;88.30;;
25905;SDS011;13713;52.552;13.204;2023-04-03T06:34:15;407.00;;;132.25;;
25905;SDS011;13713;52.552;13.204;2023-04-03T06:36:42;90.95;;;48.80;;
25905;SDS011;13713;52.552;13.204;2023-04-03T06:39:08;104.15;;;51.50;;
25905;SDS011;13713;52.552;13.204;2023-04-03T06:41:47;107.43;;;56.20;;
25905;SDS011;13713;52.552;13.204;2023-04-03T06:44:12;94.63;;;50.83;;
25905;SDS011;13713;52.552;13.204;2023-04-03T06:46:40;120.00;;;56.60;;
25905;SDS011;13713;52.552;13.204;2023-04-03T06:49:06;132.98;;;60.25;;
25905;SDS011;13713;52.552;13.204;2023-04-03T06:51:32;100.53;;;52.80;;
25905;SDS011;13713;52.552;13.204;2023-04-03T06:53:58;130.77;;;59.47;;
25905;SDS011;13713;52.552;13.204;2023-04-03T06:56:25;172.32;;;78.95;;
25905;SDS011;13713;52.552;13.204;2023-04-03T06:58:52;168.70;;;83.97;;
25905;SDS011;13713;52.552;13.204;2023-04-03T07:01:20;189.20;;;89.30;;
25905;SDS011;13713;52.552;13.204;2023-04-03T07:03:47;199.35;;;93.95;;
25905;SDS011;13713;52.552;13.204;2023-04-03T07:06:17;173.88;;;84.32;;
25905;SDS011;13713;52.552;13.204;2023-04-03T07:08:43;174.13;;;82.82;;
25905;SDS011;13713;52.552;13.204;2023-04-03T07:11:10;161.40;;;74.70;;
25905;SDS011;13713;52.552;13.204;2023-04-03T07:13:38;138.77;;;65.43;;
25905;SDS011;13713;52.552;13.204;2023-04-03T07:16:04;153.77;;;72.25;;
25905;SDS011;13713;52.552;13.204;2023-04-03T07:18:30;147.10;;;65.22;;
25905;SDS011;13713;52.552;13.204;2023-04-03T07:20:57;162.95;;;73.13;;
25905;SDS011;13713;52.552;13.204;2023-04-03T07:23:22;174.70;;;72.43;;
25905;SDS011;13713;52.552;13.204;2023-04-03T07:25:49;148.52;;;64.20;;
25905;SDS011;13713;52.552;13.204;2023-04-03T07:28:16;135.43;;;61.63;;
25905;SDS011;13713;52.552;13.204;2023-04-03T07:30:47;154.07;;;69.88;;
25905;SDS011;13713;52.552;13.204;2023-04-03T07:33:14;158.02;;;75.60;;
25905;SDS011;13713;52.552;13.204;2023-04-03T07:35:40;150.10;;;71.78;;
25905;SDS011;13713;52.552;13.204;2023-04-03T07:38:07;172.45;;;81.97;;
25905;SDS011;13713;52.552;13.204;2023-04-03T07:40:33;177.90;;;88.10;;
25905;SDS011;13713;52.552;13.204;2023-04-03T07:43:00;183.55;;;87.03;;
25905;SDS011;13713;52.552;13.204;2023-04-03T07:45:26;182.07;;;83.68;;
25905;SDS011;13713;52.552;13.204;2023-04-03T07:47:51;187.65;;;86.13;;
25905;SDS011;13713;52.552;13.204;2023-04-03T07:50:17;212.35;;;96.70;;
25905;SDS011;13713;52.552;13.204;2023-04-03T07:52:43;206.65;;;98.95;;
25905;SDS011;13713;52.552;13.204;2023-04-03T07:55:10;208.10;;;95.85;;
25905;SDS011;13713;52.552;13.204;2023-04-03T07:57:36;185.13;;;85.22;;
25905;SDS011;13713;52.552;13.204;2023-04-03T08:00:03;205.40;;;89.93;;
25905;SDS011;13713;52.552;13.204;2023-04-03T08:02:37;191.80;;;83.00;;
25905;SDS011;13713;52.552;13.204;2023-04-03T08:05:03;186.90;;;85.28;;
25905;SDS011;13713;52.552;13.204;2023-04-03T08:07:28;196.60;;;90.07;;
25905;SDS011;13713;52.552;13.204;2023-04-03T08:09:54;206.00;;;95.35;;
25905;SDS011;13713;52.552;13.204;2023-04-03T08:12:20;205.10;;;98.55;;
25905;SDS011;13713;52.552;13.204;2023-04-03T08:14:45;220.50;;;104.45;;
25905;SDS011;13713;52.552;13.204;2023-04-03T08:17:11;254.88;;;118.25;;
25905;SDS011;13713;52.552;13.204;2023-04-03T08:19:37;232.98;;;112.05;;
25905;SDS011;13713;52.552;13.204;2023-04-03T08:22:04;238.73;;;112.80;;
25905;SDS011;13713;52.552;13.204;2023-04-03T08:24:34;223.40;;;104.72;;
25905;SDS011;13713;52.552;13.204;2023-04-03T08:27:00;206.35;;;97.03;;
25905;SDS011;13713;52.552;13.204;2023-04-03T08:29:26;220.82;;;97.85;;
25905;SDS011;13713;52.552;13.204;2023-04-03T08:31:52;214.02;;;93.85;;
25905;SDS011;13713;52.552;13.204;2023-04-03T08:34:17;201.15;;;85.90;;
25905;SDS011;13713;52.552;13.204;2023-04-03T08:36:44;217.15;;;88.20;;
25905;SDS011;13713;52.552;13.204;2023-04-03T08:39:10;216.45;;;89.57;;
25905;SDS011;13713;52.552;13.204;2023-04-03T08:41:42;218.40;;;90.47;;
25905;SDS011;13713;52.552;13.204;2023-04-03T08:44:14;205.93;;;86.03;;
25905;SDS011;13713;52.552;13.204;2023-04-03T08:49:37;205.02;;;88.80;;
25905;SDS011;13713;52.552;13.204;2023-04-03T08:52:38;186.35;;;78.93;;
25905;SDS011;13713;52.552;13.204;2023-04-03T08:55:20;208.32;;;88.07;;
25905;SDS011;13713;52.552;13.204;2023-04-03T08:57:51;224.57;;;91.65;;
25905;SDS011;13713;52.552;13.204;2023-04-03T09:00:27;199.35;;;84.57;;
25905;SDS011;13713;52.552;13.204;2023-04-03T09:03:02;227.93;;;92.53;;
25905;SDS011;13713;52.552;13.204;2023-04-03T09:05:34;214.73;;;99.05;;
25905;SDS011;13713;52.552;13.204;2023-04-03T09:10:48;210.88;;;95.50;;
25905;SDS011;13713;52.552;13.204;2023-04-03T09:15:43;245.70;;;115.07;;
25905;SDS011;13713;52.552;13.204;2023-04-03T09:18:28;247.20;;;116.78;;
25905;SDS011;13713;52.552;13.204;2023-04-03T09:23:41;256.38;;;122.00;;
25905;SDS011;13713;52.552;13.204;2023-04-03T09:29:10;263.80;;;134.02;;
25905;SDS011;13713;52.552;13.204;2023-04-03T09:31:43;252.45;;;120.95;;
25905;SDS011;13713;52.552;13.204;2023-04-03T09:34:52;277.45;;;134.90;;
25905;SDS011;13713;52.552;13.204;2023-04-03T09:37:02;255.05;;;124.97;;
25905;SDS011;13713;52.552;13.204;2023-04-03T09:39:31;257.25;;;123.60;;
25905;SDS011;13713;52.552;13.204;2023-04-03T09:45:00;240.63;;;114.38;;
25905;SDS011;13713;52.552;13.204;2023-04-03T09:52:42;256.17;;;127.38;;
25905;SDS011;13713;52.552;13.204;2023-04-03T09:55:17;265.60;;;126.97;;
25905;SDS011;13713;52.552;13.204;2023-04-03T09:57:52;253.43;;;123.93;;
25905;SDS011;13713;52.552;13.204;2023-04-03T10:00:27;252.25;;;121.55;;
25905;SDS011;13713;52.552;13.204;2023-04-03T10:02:58;259.55;;;125.57;;
25905;SDS011;13713;52.552;13.204;2023-04-03T10:05:42;252.68;;;126.53;;
25905;SDS011;13713;52.552;13.204;2023-04-03T10:10:46;299.15;;;163.35;;
25905;SDS011;13713;52.552;13.204;2023-04-03T10:13:17;304.35;;;151.02;;
25905;SDS011;13713;52.552;13.204;2023-04-03T10:18:27;296.38;;;148.63;;
25905;SDS011;13713;52.552;13.204;2023-04-03T10:26:55;250.18;;;123.22;;
25905;SDS011;13713;52.552;13.204;2023-04-03T10:29:33;263.75;;;122.90;;
25905;SDS011;13713;52.552;13.204;2023-04-03T10:38:04;278.13;;;130.40;;
25905;SDS011;13713;52.552;13.204;2023-04-03T10:40:59;235.73;;;114.03;;
25905;SDS011;13713;52.552;13.204;2023-04-03T10:46:13;244.50;;;115.95;;
25905;SDS011;13713;52.552;13.204;2023-04-03T10:52:06;270.38;;;134.93;;
25905;SDS011;13713;52.552;13.204;2023-04-03T10:57:21;292.05;;;151.38;;
25905;SDS011;13713;52.552;13.204;2023-04-03T11:02:24;296.13;;;147.30;;
25905;SDS011;13713;52.552;13.204;2023-04-03T11:05:03;287.38;;;142.75;;
25905;SDS011;13713;52.552;13.204;2023-04-03T11:07:42;278.67;;;138.02;;
25905;SDS011;13713;52.552;13.204;2023-04-03T11:10:13;275.38;;;137.68;;
25905;SDS011;13713;52.552;13.204;2023-04-03T11:12:52;285.23;;;138.18;;
25905;SDS011;13713;52.552;13.204;2023-04-03T11:15:23;279.05;;;135.40;;
25905;SDS011;13713;52.552;13.204;2023-04-03T11:18:09;287.48;;;138.07;;
25905;SDS011;13713;52.552;13.204;2023-04-03T11:23:39;261.02;;;125.90;;
25905;SDS011;13713;52.552;13.204;2023-04-03T11:26:40;267.90;;;125.95;;
25905;SDS011;13713;52.552;13.204;2023-04-03T11:29:06;262.27;;;129.65;;
25905;SDS011;13713;52.552;13.204;2023-04-03T11:34:24;266.58;;;124.43;;
25905;SDS011;13713;52.552;13.204;2023-04-03T11:37:02;249.07;;;119.00;;
25905;SDS011;13713;52.552;13.204;2023-04-03T11:39:36;233.45;;;114.88;;
25905;SDS011;13713;52.552;13.204;2023-04-03T11:42:25;232.05;;;106.97;;
25905;SDS011;13713;52.552;13.204;2023-04-03T11:45:17;239.40;;;112.60;;
25905;SDS011;13713;52.552;13.204;2023-04-03T11:53:00;221.77;;;106.82;;
25905;SDS011;13713;52.552;13.204;2023-04-03T12:05:50;261.70;;;133.43;;
25905;SDS011;13713;52.552;13.204;2023-04-03T12:08:29;253.32;;;126.60;;
25905;SDS011;13713;52.552;13.204;2023-04-03T12:16:04;225.65;;;115.35;;
25905;SDS011;13713;52.552;13.204;2023-04-03T12:18:41;237.43;;;119.43;;
25905;SDS011;13713;52.552;13.204;2023-04-03T12:21:18;211.55;;;107.35;;
25905;SDS011;13713;52.552;13.204;2023-04-03T12:37:29;248.85;;;117.72;;
25905;SDS011;13713;52.552;13.204;2023-04-03T12:51:12;247.23;;;119.65;;
25905;SDS011;13713;52.552;13.204;2023-04-03T12:53:46;180.70;;;85.45;;
25905;SDS011;13713;52.552;13.204;2023-04-03T12:56:23;221.35;;;110.88;;
25905;SDS011;13713;52.552;13.204;2023-04-03T12:59:19;254.77;;;126.32;;
25905;SDS011;13713;52.552;13.204;2023-04-03T13:01:57;247.02;;;125.60;;
25905;SDS011;13713;52.552;13.204;2023-04-03T13:04:23;238.88;;;120.85;;
25905;SDS011;13713;52.552;13.204;2023-04-03T13:06:50;247.05;;;126.90;;
25905;SDS011;13713;52.552;13.204;2023-04-03T13:11:51;257.25;;;129.80;;
25905;SDS011;13713;52.552;13.204;2023-04-03T13:14:57;253.73;;;122.18;;
25905;SDS011;13713;52.552;13.204;2023-04-03T13:17:24;248.18;;;127.70;;
25905;SDS011;13713;52.552;13.204;2023-04-03T13:19:50;270.63;;;139.30;;
25905;SDS011;13713;52.552;13.204;2023-04-03T13:22:21;266.20;;;133.93;;
25905;SDS011;13713;52.552;13.204;2023-04-03T13:24:58;270.55;;;131.98;;
25905;SDS011;13713;52.552;13.204;2023-04-03T13:27:29;251.30;;;132.65;;
25905;SDS011;13713;52.552;13.204;2023-04-03T13:29:57;253.48;;;131.27;;
25905;SDS011;13713;52.552;13.204;2023-04-03T13:32:25;274.33;;;140.55;;
25905;SDS011;13713;52.552;13.204;2023-04-03T13:34:53;256.33;;;130.63;;
25905;SDS011;13713;52.552;13.204;2023-04-03T13:37:23;253.32;;;127.82;;
25905;SDS011;13713;52.552;13.204;2023-04-03T13:42:34;269.27;;;128.80;;
25905;SDS011;13713;52.552;13.204;2023-04-03T13:47:38;256.95;;;128.52;;
25905;SDS011;13713;52.552;13.204;2023-04-03T13:52:46;246.95;;;119.53;;
25905;SDS011;13713;52.552;13.204;2023-04-03T13:55:19;244.35;;;121.60;;
25905;SDS011;13713;52.552;13.204;2023-04-03T13:57:55;254.25;;;120.85;;
25905;SDS011;13713;52.552;13.204;2023-04-03T14:03:23;256.98;;;124.45;;
25905;SDS011;13713;52.552;13.204;2023-04-03T14:05:55;279.85;;;147.10;;
25905;SDS011;13713;52.552;13.204;2023-04-03T14:08:21;268.35;;;128.38;;
25905;SDS011;13713;52.552;13.204;2023-04-03T14:10:48;255.10;;;122.35;;
25905;SDS011;13713;52.552;13.204;2023-04-03T14:13:15;270.88;;;124.65;;
25905;SDS011;13713;52.552;13.204;2023-04-03T14:15:43;255.95;;;127.80;;
25905;SDS011;13713;52.552;13.204;2023-04-03T14:18:13;266.27;;;127.68;;
25905;SDS011;13713;52.552;13.204;2023-04-03T14:20:41;260.97;;;130.97;;
25905;SDS011;13713;52.552;13.204;2023-04-03T14:23:07;242.68;;;118.57;;
25905;SDS011;13713;52.552;13.204;2023-04-03T14:25:33;226.35;;;108.25;;
25905;SDS011;13713;52.552;13.204;2023-04-03T14:28:00;245.55;;;119.05;;
25905;SDS011;13713;52.552;13.204;2023-04-03T14:30:30;246.90;;;123.80;;
25905;SDS011;13713;52.552;13.204;2023-04-03T14:32:57;252.90;;;113.93;;
25905;SDS011;13713;52.552;13.204;2023-04-03T14:35:24;241.02;;;112.18;;
25905;SDS011;13713;52.552;13.204;2023-04-03T14:37:51;257.48;;;110.82;;
25905;SDS011;13713;52.552;13.204;2023-04-03T14:40:19;254.68;;;113.32;;
25905;SDS011;13713;52.552;13.204;2023-04-03T14:42:48;251.02;;;116.93;;
25905;SDS011;13713;52.552;13.204;2023-04-03T14:45:14;270.58;;;120.82;;
25905;SDS011;13713;52.552;13.204;2023-04-03T14:47:44;263.10;;;124.53;;
25905;SDS011;13713;52.552;13.204;2023-04-03T14:50:17;261.73;;;122.38;;
25905;SDS011;13713;52.552;13.204;2023-04-03T14:52:46;266.75;;;124.07;;
25905;SDS011;13713;52.552;13.204;2023-04-03T14:55:14;282.80;;;125.15;;
25905;SDS011;13713;52.552;13.204;2023-04-03T14:57:42;271.55;;;125.25;;
25905;SDS011;13713;52.552;13.204;2023-04-03T15:00:12;264.13;;;121.65;;
25905;SDS011;13713;52.552;13.204;2023-04-03T15:02:40;261.05;;;116.50;;
25905;SDS011;13713;52.552;13.204;2023-04-03T15:05:07;264.55;;;117.80;;
25905;SDS011;13713;52.552;13.204;2023-04-03T15:07:38;273.08;;;117.97;;
25905;SDS011;13713;52.552;13.204;2023-04-03T15:10:20;287.67;;;121.68;;
25905;SDS011;13713;52.552;13.204;2023-04-03T15:12:48;269.73;;;121.90;;
25905;SDS011;13713;52.552;13.204;2023-04-03T15:15:15;291.08;;;123.35;;
25905;SDS011;13713;52.552;13.204;2023-04-03T15:17:42;279.38;;;125.78;;
25905;SDS011;13713;52.552;13.204;2023-04-03T15:20:13;292.27;;;122.90;;
25905;SDS011;13713;52.552;13.204;2023-04-03T15:22:40;291.25;;;121.35;;
25905;SDS011;13713;52.552;13.204;2023-04-03T15:25:07;286.45;;;126.50;;
25905;SDS011;13713;52.552;13.204;2023-04-03T15:27:33;292.35;;;122.72;;
25905;SDS011;13713;52.552;13.204;2023-04-03T15:29:59;281.88;;;120.72;;
25905;SDS011;13713;52.552;13.204;2023-04-03T15:32:25;271.48;;;111.25;;
25905;SDS011;13713;52.552;13.204;2023-04-03T15:34:51;248.85;;;106.00;;
25905;SDS011;13713;52.552;13.204;2023-04-03T15:37:16;264.58;;;106.35;;
25905;SDS011;13713;52.552;13.204;2023-04-03T15:39:42;268.02;;;103.30;;
25905;SDS011;13713;52.552;13.204;2023-04-03T15:42:08;275.40;;;106.80;;
25905;SDS011;13713;52.552;13.204;2023-04-03T15:44:33;264.88;;;105.10;;
25905;SDS011;13713;52.552;13.204;2023-04-03T15:47:00;273.65;;;108.07;;
25905;SDS011;13713;52.552;13.204;2023-04-03T15:49:26;272.50;;;110.30;;
25905;SDS011;13713;52.552;13.204;2023-04-03T15:51:52;279.67;;;108.13;;
25905;SDS011;13713;52.552;13.204;2023-04-03T15:54:18;266.63;;;106.97;;
25905;SDS011;13713;52.552;13.204;2023-04-03T15:56:43;262.52;;;109.18;;
25905;SDS011;13713;52.552;13.204;2023-04-03T15:59:09;274.83;;;112.13;;
25905;SDS011;13713;52.552;13.204;2023-04-03T16:01:36;261.83;;;110.80;;
25905;SDS011;13713;52.552;13.204;2023-04-03T16:04:05;257.27;;;110.22;;
25905;SDS011;13713;52.552;13.204;2023-04-03T16:06:33;266.33;;;110.35;;
25905;SDS011;13713;52.552;13.204;2023-04-03T16:08:59;265.58;;;106.15;;